Time;durP1;ratioP1;P1;durP2;ratioP2;P2;SDS_P1;SDS_P2;PMS_P1;PMS_P2;Temp;Humidity;BMP_temperature;BMP_pressure;BME280_temperature;BME280_humidity;BME280_pressure;Samples;Min_cycle;Max_cycle;Signal;HPM_P1;HPM_P2
2022/06/18 00:00:12;;;;;;;7.63;6.93;;;;;;;20.93;nan;101313.50;5040653;28;20428;-70
2022/06/18 00:02:39;;;;;;;11.30;7.23;;;;;;;20.43;nan;101314.63;5042267;28;20477;-70
2022/06/18 00:05:06;;;;;;;7.80;7.10;;;;;;;20.69;nan;101310.53;5043369;28;20457;-72
2022/06/18 00:07:32;;;;;;;8.40;7.03;;;;;;;20.61;nan;101296.56;5043508;28;20725;-73
2022/06/18 00:10:01;;;;;;;7.63;6.90;;;;;;;20.78;nan;101304.13;5040706;28;20427;-71
2022/06/18 00:15:19;;;;;;;7.83;7.13;;;;;;;20.61;nan;101296.56;5041320;28;20687;-72
2022/06/18 00:17:45;;;;;;;7.20;6.60;;;;;;;20.68;nan;101300.81;5040976;28;20802;-72
2022/06/18 00:20:12;;;;;;;7.47;6.80;;;;;;;20.69;nan;101294.63;5040974;28;20467;-72
2022/06/18 00:22:38;;;;;;;7.00;6.40;;;;;;;20.44;nan;101296.94;5040852;28;20198;-72
2022/06/18 00:25:16;;;;;;;7.37;6.77;;;;;;;20.64;nan;101291.19;5041466;28;20405;-72
2022/06/18 00:27:41;;;;;;;6.53;5.93;;;;;;;20.94;nan;101288.72;5040345;28;20595;-71
2022/06/18 00:30:10;;;;;;;7.57;6.70;;;;;;;20.60;nan;101292.16;5040739;28;20547;-72
2022/06/18 00:32:35;;;;;;;10.67;6.73;;;;;;;20.46;nan;101288.06;5040416;28;20436;-69
2022/06/18 00:35:01;;;;;;;7.10;6.50;;;;;;;21.07;nan;101284.88;5040637;28;20431;-70
2022/06/18 00:37:26;;;;;;;6.40;5.80;;;;;;;20.61;nan;101278.88;5040301;28;20586;-69
2022/06/18 00:39:52;;;;;;;8.53;6.30;;;;;;;20.81;nan;101272.25;5040046;28;20529;-70
2022/06/18 00:42:29;;;;;;;6.87;6.27;;;;;;;20.77;nan;101265.28;5040550;28;20540;-70
2022/06/18 00:44:58;;;;;;;7.40;6.70;;;;;;;20.74;nan;101271.53;5040564;28;20257;-70
2022/06/18 00:47:30;;;;;;;7.20;6.63;;;;;;;20.80;nan;101262.59;5039103;28;20680;-69
2022/06/18 00:50:03;;;;;;;6.93;6.33;;;;;;;20.49;nan;101265.94;5039933;28;20417;-70
2022/06/18 00:52:49;;;;;;;6.93;6.43;;;;;;;20.40;nan;101258.19;5039747;28;20467;-70
2022/06/18 00:55:22;;;;;;;7.37;6.77;;;;;;;20.56;nan;101251.63;5039702;28;20416;-70
2022/06/18 00:58:15;;;;;;;8.20;7.40;;;;;;;20.88;nan;101252.66;5039711;28;20420;-69
2022/06/18 01:00:44;;;;;;;7.17;6.60;;;;;;;20.49;nan;101237.66;5039592;28;20839;-70
2022/06/18 01:03:27;;;;;;;7.13;6.47;;;;;;;20.29;nan;101253.16;5040285;28;20869;-70
2022/06/18 01:05:54;;;;;;;7.70;7.00;;;;;;;19.94;nan;101238.91;5040172;28;20417;-70
2022/06/18 01:08:21;;;;;;;6.80;6.20;;;;;;;20.59;nan;101235.66;5040166;28;20417;-69
2022/06/18 01:10:51;;;;;;;7.20;6.60;;;;;;;20.22;nan;101231.22;5040343;28;20413;-70
2022/06/18 01:13:20;;;;;;;6.70;6.20;;;;;;;20.27;nan;101228.47;5040055;28;20409;-70
2022/06/18 01:15:46;;;;;;;6.73;6.23;;;;;;;20.22;nan;101225.06;5039313;28;20417;-69
2022/06/18 01:18:12;;;;;;;7.23;6.63;;;;;;;20.45;nan;101227.19;5039269;28;20475;-69
2022/06/18 01:20:44;;;;;;;6.80;6.20;;;;;;;20.48;nan;101217.38;5039723;28;20417;-70
2022/06/18 01:23:19;;;;;;;6.90;6.40;;;;;;;20.17;nan;101223.41;5039740;28;20277;-70
2022/06/18 01:25:44;;;;;;;7.83;6.97;;;;;;;20.06;nan;101222.75;5039202;28;20405;-69
2022/06/18 01:28:13;;;;;;;6.87;6.27;;;;;;;20.23;nan;101221.50;5039135;28;20711;-70
2022/06/18 01:30:39;;;;;;;7.40;6.77;;;;;;;20.48;nan;101212.06;5038815;28;20432;-69
2022/06/18 01:33:08;;;;;;;6.50;6.00;;;;;;;20.33;nan;101207.16;5039451;28;20797;-70
2022/06/18 01:35:39;;;;;;;8.07;6.80;;;;;;;20.24;nan;101205.59;5039020;28;20763;-70
2022/06/18 01:38:05;;;;;;;7.10;6.40;;;;;;;19.59;nan;101211.38;5039037;28;20409;-70
2022/06/18 01:43:58;;;;;;;6.67;6.17;;;;;;;20.32;nan;101194.81;5039532;28;20657;-70
2022/06/18 01:46:25;;;;;;;7.10;6.53;;;;;;;20.05;nan;101186.59;5038638;28;20810;-69
2022/06/18 01:48:53;;;;;;;7.57;6.87;;;;;;;19.94;nan;101176.25;5038774;28;20790;-70
2022/06/18 01:51:29;;;;;;;7.00;6.40;;;;;;;20.11;nan;101180.31;5039275;28;20438;-69
2022/06/18 01:53:58;;;;;;;7.13;6.30;;;;;;;20.06;nan;101172.47;5039278;28;20416;-70
2022/06/18 01:56:35;;;;;;;6.90;6.30;;;;;;;19.95;nan;101174.50;5038580;28;20463;-69
2022/06/18 01:59:05;;;;;;;6.83;6.33;;;;;;;19.84;nan;101172.94;5038896;28;20413;-70
2022/06/18 02:01:33;;;;;;;7.07;6.37;;;;;;;19.81;nan;101167.75;5038505;28;20753;-70
2022/06/18 02:04:00;;;;;;;7.73;6.53;;;;;;;19.93;nan;101171.00;5038047;28;20502;-69
2022/06/18 02:06:26;;;;;;;6.70;6.10;;;;;;;19.97;nan;101172.69;5038786;28;20424;-69
2022/06/18 02:08:51;;;;;;;8.33;6.33;;;;;;;20.40;nan;101158.44;5038710;28;20413;-70
2022/06/18 02:11:18;;;;;;;7.47;6.87;;;;;;;19.84;nan;101162.38;5038933;28;20169;-70
2022/06/18 02:13:50;;;;;;;7.50;6.43;;;;;;;20.09;nan;101155.66;5038010;28;20224;-70
2022/06/18 02:16:18;;;;;;;6.97;6.37;;;;;;;20.12;nan;101152.91;5038661;28;20401;-69
2022/06/18 02:18:45;;;;;;;7.23;6.30;;;;;;;20.14;nan;101149.34;5038809;28;20456;-70
2022/06/18 02:21:12;;;;;;;8.17;6.30;;;;;;;19.98;nan;101147.97;5037998;28;20420;-69
2022/06/18 02:23:38;;;;;;;7.33;6.60;;;;;;;20.06;nan;101143.34;5038165;28;20445;-71
2022/06/18 02:26:06;;;;;;;7.10;6.50;;;;;;;20.07;nan;101144.25;5038650;28;20797;-69
2022/06/18 02:28:36;;;;;;;9.83;6.73;;;;;;;19.46;nan;101144.66;5038517;28;20676;-71
2022/06/18 02:31:03;;;;;;;7.13;6.53;;;;;;;19.81;nan;101137.78;5039095;28;20731;-70
2022/06/18 02:33:46;;;;;;;6.97;6.27;;;;;;;20.01;nan;101138.19;5037515;28;20478;-69
2022/06/18 02:36:23;;;;;;;6.73;6.23;;;;;;;20.09;nan;101132.69;5038615;28;20744;-69
2022/06/18 02:38:52;;;;;;;7.23;6.63;;;;;;;19.96;nan;101134.78;5037946;28;20409;-70
2022/06/18 02:41:17;;;;;;;7.13;6.50;;;;;;;20.41;nan;101131.03;5037633;28;20736;-70
2022/06/18 02:43:44;;;;;;;7.07;6.47;;;;;;;19.89;nan;101124.34;5038136;28;20555;-70
2022/06/18 02:46:10;;;;;;;8.33;7.33;;;;;;;20.18;nan;101123.66;5038347;28;20170;-70
2022/06/18 02:48:37;;;;;;;7.37;6.63;;;;;;;19.98;nan;101122.34;5037989;28;20416;-70
2022/06/18 02:51:03;;;;;;;7.07;6.47;;;;;;;19.83;nan;101122.72;5038255;28;20726;-70
2022/06/18 02:53:29;;;;;;;6.83;6.33;;;;;;;20.59;nan;101116.44;5037308;28;20431;-70
2022/06/18 02:55:58;;;;;;;7.00;6.30;;;;;;;20.43;nan;101126.59;5038672;28;20402;-70
2022/06/18 02:58:26;;;;;;;6.97;6.40;;;;;;;20.38;nan;101111.69;5037223;28;20560;-70
2022/06/18 03:00:58;;;;;;;7.20;6.60;;;;;;;19.84;nan;101108.59;5037783;28;20402;-70
2022/06/18 03:03:29;;;;;;;6.70;6.10;;;;;;;20.40;nan;101110.75;5037857;28;20479;-70
2022/06/18 03:05:55;;;;;;;7.53;6.70;;;;;;;20.76;nan;101110.75;5038150;28;20419;-70
2022/06/18 03:08:21;;;;;;;11.50;6.63;;;;;;;20.41;nan;101109.84;5038347;28;20484;-70
2022/06/18 03:13:31;;;;;;;6.70;6.10;;;;;;;20.71;nan;101107.34;5037884;28;20424;-70
2022/06/18 03:15:57;;;;;;;7.57;6.97;;;;;;;21.00;nan;101105.69;5037912;28;20413;-70
2022/06/18 03:18:28;;;;;;;7.23;6.73;;;;;;;20.93;nan;101101.47;5037889;28;20416;-70
2022/06/18 03:21:03;;;;;;;7.57;6.30;;;;;;;21.15;nan;101099.09;5038379;28;20467;-70
2022/06/18 03:23:29;;;;;;;6.57;5.97;;;;;;;21.17;nan;101106.06;5036911;28;20542;-70
2022/06/18 03:25:55;;;;;;;7.07;6.40;;;;;;;21.18;nan;101099.84;5037044;28;20451;-69
2022/06/18 03:28:22;;;;;;;7.17;6.50;;;;;;;21.33;nan;101100.31;5037816;28;20162;-70
2022/06/18 03:30:47;;;;;;;7.30;6.50;;;;;;;21.39;nan;101108.09;5037775;28;20167;-69
2022/06/18 03:33:13;;;;;;;7.07;6.47;;;;;;;21.40;nan;101108.97;5037956;28;20428;-69
2022/06/18 03:35:40;;;;;;;6.93;6.30;;;;;;;21.63;nan;101103.00;5037718;28;20272;-69
2022/06/18 03:38:05;;;;;;;6.97;6.37;;;;;;;21.52;nan;101090.88;5036944;28;20173;-70
2022/06/18 03:40:31;;;;;;;7.73;6.67;;;;;;;22.15;nan;101096.03;5038483;28;20397;-70
2022/06/18 03:42:56;;;;;;;7.17;6.47;;;;;;;22.81;nan;101100.00;5037252;28;20218;-69
2022/06/18 03:45:22;;;;;;;6.77;6.23;;;;;;;22.82;nan;101091.97;5037786;28;20170;-70
2022/06/18 03:47:48;;;;;;;8.00;5.77;;;;;;;22.94;nan;101097.78;5038019;28;20166;-70
2022/06/18 03:50:18;;;;;;;6.40;5.80;;;;;;;23.05;nan;101092.94;5037682;28;20163;-72
2022/06/18 03:52:44;;;;;;;7.13;6.03;;;;;;;22.66;nan;101093.47;5037420;28;20688;-72
2022/06/18 03:55:11;;;;;;;6.70;5.70;;;;;;;23.38;nan;101106.81;5037863;28;20418;-69
2022/06/18 03:57:37;;;;;;;5.67;5.27;;;;;;;23.62;nan;101097.94;5037686;28;20174;-70
2022/06/18 04:00:04;;;;;;;6.10;5.33;;;;;;;23.97;nan;101098.34;5037507;28;20431;-71
2022/06/18 04:02:30;;;;;;;5.93;5.33;;;;;;;24.00;nan;101093.78;5037120;28;20649;-72
2022/06/18 04:04:56;;;;;;;5.10;4.70;;;;;;;23.90;nan;101092.41;5037417;28;20425;-70
2022/06/18 04:07:22;;;;;;;5.40;4.93;;;;;;;24.80;nan;101094.84;5037698;28;20196;-70
2022/06/18 04:09:50;;;;;;;5.90;5.30;;;;;;;24.79;nan;101094.91;5037376;28;20170;-70
2022/06/18 04:12:16;;;;;;;5.93;5.40;;;;;;;25.03;nan;101092.94;5037327;28;20415;-71
2022/06/18 04:14:42;;;;;;;5.73;5.33;;;;;;;24.96;nan;101092.34;5037622;28;20418;-70
2022/06/18 04:17:12;;;;;;;5.20;4.70;;;;;;;25.62;nan;101080.44;5037214;28;20505;-71
2022/06/18 04:19:38;;;;;;;5.90;5.40;;;;;;;25.31;nan;101089.00;5037229;28;20581;-70
2022/06/18 04:22:03;;;;;;;5.20;4.70;;;;;;;25.35;nan;101091.47;5038740;28;20400;-69
2022/06/18 04:24:28;;;;;;;5.43;5.00;;;;;;;25.68;nan;101088.16;5040771;28;20514;-71
2022/06/18 04:26:54;;;;;;;5.83;4.87;;;;;;;25.78;nan;101093.06;5040888;28;20249;-71
2022/06/18 04:29:19;;;;;;;6.37;4.73;;;;;;;26.85;nan;101086.75;5041304;28;20178;-71
2022/06/18 04:31:45;;;;;;;6.30;5.80;;;;;;;26.64;nan;101099.44;5040833;28;20170;-71
2022/06/18 04:34:10;;;;;;;6.43;5.83;;;;;;;26.31;nan;101096.69;5040564;28;20176;-70
2022/06/18 04:36:38;;;;;;;6.83;5.80;;;;;;;26.61;nan;101093.38;5041339;28;20411;-70
2022/06/18 04:39:04;;;;;;;5.77;5.37;;;;;;;27.01;nan;101085.97;5040940;28;20257;-71
2022/06/18 04:41:30;;;;;;;6.07;5.57;;;;;;;26.66;nan;101091.34;5040661;28;20452;-70
2022/06/18 04:43:55;;;;;;;6.10;5.50;;;;;;;27.10;nan;101090.78;5040672;28;20445;-71
2022/06/18 04:46:21;;;;;;;5.80;5.30;;;;;;;27.80;nan;101087.81;5040567;28;20611;-71
2022/06/18 04:48:47;;;;;;;5.90;5.40;;;;;;;28.03;nan;101085.66;5040460;28;20224;-71
2022/06/18 04:51:12;;;;;;;7.20;6.50;;;;;;;27.73;nan;101090.00;5040410;28;20427;-70
2022/06/18 04:53:38;;;;;;;6.70;6.10;;;;;;;27.87;nan;101096.38;5040369;28;20472;-71
2022/06/18 04:56:04;;;;;;;5.47;5.07;;;;;;;26.99;nan;101103.91;5040297;28;20185;-70
2022/06/18 04:58:29;;;;;;;6.17;5.60;;;;;;;27.18;nan;101107.31;5040871;28;20170;-71
2022/06/18 05:00:55;;;;;;;5.03;4.63;;;;;;;26.73;nan;101114.16;5040188;28;21318;-70
2022/06/18 05:03:21;;;;;;;9.53;5.40;;;;;;;27.68;nan;101123.34;5040075;28;20247;-70
2022/06/18 05:05:47;;;;;;;6.43;4.70;;;;;;;28.01;nan;101114.34;5040729;28;20162;-70
2022/06/18 05:08:12;;;;;;;7.33;4.87;;;;;;;28.73;nan;101106.56;5040154;28;20549;-71
2022/06/18 05:10:37;;;;;;;5.40;5.00;;;;;;;28.84;nan;101113.97;5040183;28;20225;-71
2022/06/18 05:13:03;;;;;;;4.80;4.40;;;;;;;28.98;nan;101097.00;5040389;28;20260;-71
2022/06/18 05:15:28;;;;;;;5.60;5.10;;;;;;;29.37;nan;101096.31;5040111;28;20166;-71
2022/06/18 05:17:54;;;;;;;5.53;5.03;;;;;;;29.06;nan;101094.69;5040110;28;20178;-70
2022/06/18 05:20:23;;;;;;;5.20;4.73;;;;;;;28.62;nan;101098.25;5040330;28;20162;-71
2022/06/18 05:22:49;;;;;;;4.97;4.57;;;;;;;28.74;nan;101092.22;5039546;28;20848;-70
2022/06/18 05:25:14;;;;;;;4.90;4.50;;;;;;;28.81;nan;101095.38;5038990;28;20468;-70
2022/06/18 05:27:40;;;;;;;5.30;4.80;;;;;;;29.18;nan;101087.69;5039951;28;20175;-69
2022/06/18 05:30:08;;;;;;;5.83;5.30;;;;;;;29.68;nan;101086.28;5041769;28;20178;-71
2022/06/18 05:32:34;;;;;;;5.27;4.87;;;;;;;29.80;nan;101079.22;5043435;28;20432;-72
2022/06/18 05:35:00;;;;;;;5.57;5.07;;;;;;;29.90;nan;101077.69;5039908;28;20424;-71
2022/06/18 05:37:27;;;;;;;5.40;4.90;;;;;;;30.05;nan;101072.25;5039432;28;20185;-69
2022/06/18 05:39:52;;;;;;;5.37;4.87;;;;;;;30.22;nan;101066.56;5038975;28;20474;-71
2022/06/18 05:42:18;;;;;;;5.63;5.10;;;;;;;30.13;nan;101069.88;5037345;28;20729;-71
2022/06/18 05:44:43;;;;;;;7.13;4.63;;;;;;;30.49;nan;101064.81;5038837;28;20273;-70
2022/06/18 05:47:15;;;;;;;5.37;4.97;;;;;;;29.98;nan;101062.88;5037395;28;20174;-71
2022/06/18 05:49:41;;;;;;;5.23;4.80;;;;;;;30.59;nan;101054.28;5038166;28;20188;-70
2022/06/18 05:52:08;;;;;;;5.30;4.90;;;;;;;30.23;nan;101054.88;5039711;28;20515;-71
2022/06/18 05:54:34;;;;;;;5.23;4.73;;;;;;;30.33;nan;101056.91;5040841;28;20182;-71
2022/06/18 05:57:00;;;;;;;6.70;5.20;;;;;;;32.04;nan;101051.84;5039533;28;20881;-71
2022/06/18 05:59:25;;;;;;;5.90;5.00;;;;;;;31.49;nan;101063.09;5038256;28;20182;-71
2022/06/18 06:01:50;;;;;;;5.30;4.80;;;;;;;29.92;nan;101069.53;5040780;28;20235;-72
2022/06/18 06:04:19;;;;;;;6.63;4.80;;;;;;;30.97;nan;101059.63;5038499;28;20248;-71
2022/06/18 06:06:44;;;;;;;5.30;4.90;;;;;;;30.73;nan;101059.56;5039001;28;20182;-71
2022/06/18 06:09:12;;;;;;;5.83;5.33;;;;;;;30.25;nan;101065.50;5038836;28;20485;-71
2022/06/18 06:11:38;;;;;;;5.70;5.20;;;;;;;30.28;nan;101059.06;5038778;28;20182;-71
2022/06/18 06:14:04;;;;;;;5.80;5.30;;;;;;;31.58;nan;101057.03;5038747;28;20463;-71
2022/06/18 06:16:30;;;;;;;5.30;4.90;;;;;;;31.47;nan;101064.16;5038862;28;20240;-71
2022/06/18 06:18:55;;;;;;;5.50;5.00;;;;;;;31.99;nan;101057.59;5038621;28;20441;-71
2022/06/18 06:21:21;;;;;;;5.70;5.20;;;;;;;32.69;nan;101054.94;5038207;28;20444;-71
2022/06/18 06:23:46;;;;;;;7.10;5.53;;;;;;;31.65;nan;101059.28;5037676;28;20233;-71
2022/06/18 06:26:17;;;;;;;6.00;5.00;;;;;;;30.93;nan;101060.81;5038727;28;20253;-75
2022/06/18 06:28:43;;;;;;;6.63;5.87;;;;;;;31.48;nan;101055.97;5036352;28;20193;-73
2022/06/18 06:31:09;;;;;;;7.03;6.07;;;;;;;31.21;nan;101065.09;5037746;28;20527;-72
2022/06/18 06:33:34;;;;;;;6.13;5.60;;;;;;;32.64;nan;101057.16;5037940;28;20432;-72
2022/06/18 06:36:00;;;;;;;10.17;5.63;;;;;;;32.70;nan;101054.84;5036923;28;20842;-74
2022/06/18 06:38:26;;;;;;;6.40;5.83;;;;;;;31.24;nan;101059.50;5037076;28;20189;-74
2022/06/18 06:40:51;;;;;;;6.73;6.13;;;;;;;31.32;nan;101063.47;5047165;28;20603;-75
2022/06/18 06:43:18;;;;;;;9.23;6.00;;;;;;;32.29;nan;101050.00;5040389;28;20236;-76
2022/06/18 06:45:43;;;;;;;7.63;6.17;;;;;;;32.75;nan;101051.81;5068845;28;20255;-76
2022/06/18 06:48:10;;;;;;;7.10;6.40;;;;;;;32.43;nan;101057.88;5038266;28;20838;-74
2022/06/18 06:50:35;;;;;;;7.07;6.37;;;;;;;32.04;nan;101058.13;5038216;28;20177;-73
2022/06/18 06:53:01;;;;;;;6.40;5.80;;;;;;;32.68;nan;101061.34;5040764;28;20435;-75
2022/06/18 06:58:16;;;;;;;12.40;6.63;;;;;;;32.40;nan;101060.81;5032522;28;20273;-77
2022/06/18 07:00:46;;;;;;;8.40;6.37;;;;;;;33.03;nan;101052.28;5031163;28;20436;-76
2022/06/18 07:03:12;;;;;;;9.07;6.50;;;;;;;32.21;nan;101058.69;5025709;28;20480;-77
2022/06/18 07:05:39;;;;;;;6.93;6.23;;;;;;;32.44;nan;101070.38;5026327;28;20500;-76
2022/06/18 07:08:06;;;;;;;6.60;5.90;;;;;;;32.88;nan;101076.84;5026641;28;20477;-76
2022/06/18 07:10:31;;;;;;;7.43;6.50;;;;;;;32.61;nan;101087.09;5026101;28;20483;-75
2022/06/18 07:12:57;;;;;;;6.70;6.10;;;;;;;31.67;nan;101092.38;5029258;28;20444;-75
2022/06/18 07:15:22;;;;;;;10.17;6.77;;;;;;;31.29;nan;101088.78;5028774;28;21875;-74
2022/06/18 07:17:47;;;;;;;7.07;6.47;;;;;;;32.11;nan;101085.47;5030847;28;20259;-76
2022/06/18 07:20:16;;;;;;;7.00;6.30;;;;;;;32.54;nan;101092.97;5026923;28;20202;-76
2022/06/18 07:22:42;;;;;;;6.10;5.60;;;;;;;32.12;nan;101102.50;5038200;28;20210;-72
2022/06/18 07:25:08;;;;;;;6.67;6.00;;;;;;;33.43;nan;101089.59;5035730;28;20943;-72
2022/06/18 07:27:35;;;;;;;8.00;5.90;;;;;;;34.02;nan;101079.38;5039351;28;20181;-73
2022/06/18 07:30:00;;;;;;;7.10;6.40;;;;;;;33.66;nan;101082.28;5057987;28;20427;-73
2022/06/18 07:32:26;;;;;;;7.00;6.50;;;;;;;32.91;nan;101089.25;5044105;28;20424;-73
2022/06/18 07:34:53;;;;;;;7.77;6.77;;;;;;;33.67;nan;101088.56;5038233;28;20170;-72
2022/06/18 07:37:20;;;;;;;6.90;6.40;;;;;;;33.05;nan;101082.75;5055508;28;20314;-73
2022/06/18 07:39:45;;;;;;;6.60;5.93;;;;;;;32.88;nan;101084.94;5031009;28;20853;-73
2022/06/18 07:42:13;;;;;;;6.80;6.10;;;;;;;32.97;nan;101077.94;5057882;28;20485;-73
2022/06/18 07:44:38;;;;;;;7.77;6.13;;;;;;;32.95;nan;101084.44;5032985;28;20217;-73
2022/06/18 07:47:04;;;;;;;9.13;6.53;;;;;;;34.10;nan;101087.69;5036438;28;20704;-73
2022/06/18 07:49:30;;;;;;;6.97;6.40;;;;;;;33.04;nan;101079.19;5038776;28;20442;-74
2022/06/18 07:51:56;;;;;;;7.67;6.30;;;;;;;33.20;nan;101081.47;5017351;28;20297;-74
2022/06/18 07:54:21;;;;;;;6.50;5.93;;;;;;;32.80;nan;101090.09;5017644;28;20726;-74
2022/06/18 07:56:46;;;;;;;7.73;7.00;;;;;;;32.78;nan;101077.72;5036202;28;20179;-75
2022/06/18 07:59:12;;;;;;;7.80;5.90;;;;;;;32.07;nan;101084.84;5021796;28;20262;-75
2022/06/18 08:01:39;;;;;;;8.33;6.70;;;;;;;32.71;nan;101077.34;5021506;28;20588;-74
2022/06/18 08:04:05;;;;;;;7.53;6.93;;;;;;;34.23;nan;101082.94;5022102;28;20202;-72
2022/06/18 08:06:31;;;;;;;8.03;6.20;;;;;;;33.33;nan;101084.09;5021951;28;20472;-74
2022/06/18 08:08:56;;;;;;;6.97;6.03;;;;;;;33.59;nan;101083.78;5021571;28;20429;-73
2022/06/18 08:11:23;;;;;;;6.97;6.47;;;;;;;32.66;nan;101087.59;5022385;28;20179;-75
2022/06/18 08:13:50;;;;;;;7.90;7.20;;;;;;;32.96;nan;101081.63;5021399;28;20274;-77
2022/06/18 08:16:16;;;;;;;7.77;6.50;;;;;;;33.56;nan;101084.06;5037056;28;20422;-77
2022/06/18 08:18:42;;;;;;;10.57;6.87;;;;;;;33.97;nan;101068.94;5021671;28;20418;-75
2022/06/18 08:21:15;;;;;;;7.77;6.50;;;;;;;33.24;nan;101077.56;5021200;28;20505;-76
2022/06/18 08:23:41;;;;;;;9.77;6.20;;;;;;;33.45;nan;101087.63;5020426;28;20488;-77
2022/06/18 08:26:07;;;;;;;6.73;6.03;;;;;;;33.70;nan;101080.19;5021973;28;20417;-76
2022/06/18 08:28:35;;;;;;;8.10;6.73;;;;;;;33.37;nan;101090.13;5037024;28;20171;-76
2022/06/18 08:31:01;;;;;;;7.93;6.20;;;;;;;33.53;nan;101095.09;5021152;28;20567;-75
2022/06/18 08:33:29;;;;;;;7.47;6.43;;;;;;;34.25;nan;101091.78;5021086;28;20448;-76
2022/06/18 08:35:56;;;;;;;9.73;6.70;;;;;;;33.61;nan;101083.66;5023453;28;20435;-76
2022/06/18 08:38:21;;;;;;;7.03;6.43;;;;;;;33.62;nan;101079.97;5040867;28;20446;-76
2022/06/18 08:40:53;;;;;;;8.20;6.57;;;;;;;32.74;nan;101093.28;5040263;28;20409;-77
2022/06/18 08:43:39;;;;;;;7.83;6.87;;;;;;;33.70;nan;101078.34;5040680;28;20233;-76
2022/06/18 08:46:41;;;;;;;8.47;7.60;;;;;;;34.16;nan;101084.44;5039981;28;20424;-76
2022/06/18 08:49:33;;;;;;;8.13;6.10;;;;;;;34.38;nan;101096.16;5040400;28;20431;-77
2022/06/18 08:52:07;;;;;;;8.13;6.67;;;;;;;34.08;nan;101103.19;5040494;28;20405;-75
2022/06/18 08:54:51;;;;;;;7.10;6.40;;;;;;;33.80;nan;101099.25;5039236;28;20452;-77
2022/06/18 08:57:34;;;;;;;8.47;6.90;;;;;;;34.33;nan;101107.41;5040284;28;20731;-76
2022/06/18 09:00:20;;;;;;;7.87;6.47;;;;;;;33.30;nan;101105.09;5039654;28;20442;-74
2022/06/18 09:02:45;;;;;;;6.83;5.83;;;;;;;33.69;nan;101124.44;5039139;28;20935;-75
2022/06/18 09:05:19;;;;;;;7.50;5.80;;;;;;;34.35;nan;101118.09;5040090;28;20445;-76
2022/06/18 09:08:10;;;;;;;7.40;5.90;;;;;;;35.94;nan;101116.78;5038614;28;20272;-75
2022/06/18 09:10:59;;;;;;;10.00;6.33;;;;;;;35.69;nan;101127.16;5039395;28;20417;-75
2022/06/18 09:13:48;;;;;;;8.17;6.20;;;;;;;34.00;nan;101127.31;5039787;28;20467;-75
2022/06/18 09:16:15;;;;;;;10.80;6.63;;;;;;;33.96;nan;101120.47;5039640;28;20436;-76
2022/06/18 09:19:03;;;;;;;8.70;5.67;;;;;;;33.43;nan;101123.88;5039302;28;20485;-75
2022/06/18 09:21:36;;;;;;;6.93;6.33;;;;;;;33.91;nan;101115.44;5039633;28;20423;-75
2022/06/18 09:24:04;;;;;;;11.37;6.73;;;;;;;34.84;nan;101115.72;5038952;28;20412;-75
2022/06/18 09:26:34;;;;;;;6.90;5.80;;;;;;;34.86;nan;101116.44;5039696;28;20443;-75
2022/06/18 09:29:10;;;;;;;7.63;6.83;;;;;;;34.16;nan;101126.91;5039819;28;20428;-75
2022/06/18 09:31:41;;;;;;;6.53;5.93;;;;;;;34.11;nan;101126.41;5039766;28;20486;-74
2022/06/18 09:34:16;;;;;;;9.03;6.33;;;;;;;35.58;nan;101128.13;5038606;28;20464;-75
2022/06/18 09:36:43;;;;;;;9.97;6.00;;;;;;;34.28;nan;101130.41;5039422;28;20436;-76
2022/06/18 09:39:25;;;;;;;8.87;6.03;;;;;;;33.79;nan;101130.84;5038854;28;20421;-74
2022/06/18 09:42:04;;;;;;;7.83;7.07;;;;;;;33.60;nan;101136.00;5039542;28;20431;-73
2022/06/18 09:44:57;;;;;;;8.93;6.77;;;;;;;34.20;nan;101142.72;5022113;28;20466;-74
2022/06/18 09:47:37;;;;;;;6.40;5.80;;;;;;;34.35;nan;101139.75;5039263;28;20412;-74
2022/06/18 09:50:08;;;;;;;11.20;6.20;;;;;;;35.14;nan;101141.09;5039451;28;20475;-76
2022/06/18 09:52:39;;;;;;;11.30;6.47;;;;;;;34.22;nan;101143.47;5038385;28;20496;-75
2022/06/18 09:55:36;;;;;;;8.10;6.93;;;;;;;34.10;nan;101146.34;5038409;28;20424;-76
2022/06/18 09:58:02;;;;;;;8.97;7.43;;;;;;;33.47;nan;101145.13;5022570;28;20433;-75
2022/06/18 10:00:30;;;;;;;7.87;7.07;;;;;;;33.13;nan;101158.63;5039209;28;20424;-76
2022/06/18 10:03:05;;;;;;;8.77;6.73;;;;;;;34.13;nan;101149.66;5038749;28;20488;-75
2022/06/18 10:08:32;;;;;;;8.60;6.13;;;;;;;33.54;nan;101150.88;5038498;28;20698;-76
2022/06/18 10:11:07;;;;;;;7.87;6.40;;;;;;;33.41;nan;101146.47;5039012;28;20421;-76
2022/06/18 10:13:35;;;;;;;8.17;6.10;;;;;;;32.18;nan;101151.50;5039212;28;20539;-76
2022/06/18 10:16:03;;;;;;;7.33;5.37;;;;;;;33.22;nan;101151.63;5038659;28;20424;-76
2022/06/18 10:18:41;;;;;;;12.80;5.90;;;;;;;34.66;nan;101156.06;5038122;28;20479;-76
2022/06/18 10:21:28;;;;;;;6.63;5.10;;;;;;;33.21;nan;101160.72;5037320;28;20409;-71
2022/06/18 10:24:09;;;;;;;5.47;4.90;;;;;;;32.36;nan;101167.25;5038374;28;20684;-77
2022/06/18 10:26:53;;;;;;;7.80;4.50;;;;;;;32.50;nan;101177.00;5037703;28;20413;-76
2022/06/18 10:29:30;;;;;;;6.53;4.20;;;;;;;32.49;nan;101178.84;5038604;28;20432;-76
2022/06/18 10:32:12;;;;;;;8.40;4.30;;;;;;;32.19;nan;101187.41;5038590;28;20459;-75
2022/06/18 10:35:01;;;;;;;7.10;5.10;;;;;;;32.75;nan;101176.00;5038174;28;20543;-75
2022/06/18 10:38:05;;;;;;;4.73;3.90;;;;;;;32.57;nan;101181.81;5037545;28;20439;-75
2022/06/18 10:40:49;;;;;;;6.67;3.93;;;;;;;32.67;nan;101167.59;5038336;28;20484;-76
2022/06/18 10:43:23;;;;;;;5.60;4.33;;;;;;;32.42;nan;101180.25;5038460;28;20496;-75
2022/06/18 10:45:56;;;;;;;5.40;4.50;;;;;;;33.52;nan;101179.91;5038423;28;20678;-75
2022/06/18 10:48:28;;;;;;;8.23;4.27;;;;;;;33.09;nan;101176.06;5038303;28;20425;-77
2022/06/18 10:50:56;;;;;;;5.97;3.77;;;;;;;33.52;nan;101178.03;5037561;28;20456;-74
2022/06/18 10:53:25;;;;;;;4.20;3.80;;;;;;;33.12;nan;101173.09;5037988;28;20912;-74
2022/06/18 10:56:02;;;;;;;4.87;3.77;;;;;;;33.38;nan;101178.28;5038338;28;20648;-74
2022/06/18 10:58:28;;;;;;;6.50;4.07;;;;;;;33.70;nan;101182.94;5038040;28;20811;-76
2022/06/18 11:01:11;;;;;;;7.13;4.03;;;;;;;31.85;nan;101177.28;5037933;28;20471;-72
2022/06/18 11:03:36;;;;;;;6.10;3.83;;;;;;;31.88;nan;101176.16;5037165;28;20220;-75
2022/06/18 11:06:12;;;;;;;4.90;3.80;;;;;;;31.30;nan;101181.22;5037789;28;20445;-77
2022/06/18 11:08:38;;;;;;;5.37;4.03;;;;;;;31.86;nan;101176.28;5038002;28;20170;-77
2022/06/18 11:11:09;;;;;;;4.90;3.73;;;;;;;32.47;nan;101172.69;5038056;28;20417;-78
2022/06/18 11:13:36;;;;;;;6.33;4.47;;;;;;;31.43;nan;101187.47;5037706;28;20513;-76
2022/06/18 11:16:12;;;;;;;5.60;4.10;;;;;;;31.73;nan;101176.34;5038640;28;20420;-77
2022/06/18 11:18:49;;;;;;;5.60;4.10;;;;;;;32.58;nan;101166.47;5037138;28;20482;-76
2022/06/18 11:21:22;;;;;;;7.03;4.60;;;;;;;31.41;nan;101174.09;5037958;28;20416;-76
2022/06/18 11:24:03;;;;;;;4.60;4.20;;;;;;;31.09;nan;101168.31;5037070;28;20425;-76
2022/06/18 11:26:29;;;;;;;6.63;4.10;;;;;;;32.29;nan;101174.09;5037154;28;20738;-76
2022/06/18 11:29:00;;;;;;;5.30;4.00;;;;;;;31.50;nan;101180.69;5036869;28;20417;-76
2022/06/18 11:31:30;;;;;;;5.20;4.00;;;;;;;31.28;nan;101185.88;5039452;28;20166;-76
2022/06/18 11:34:07;;;;;;;4.00;3.70;;;;;;;31.01;nan;101178.75;5041354;28;20468;-78
2022/06/18 11:36:46;;;;;;;6.90;4.00;;;;;;;31.78;nan;101192.16;5041294;28;20425;-75
2022/06/18 11:39:38;;;;;;;4.10;3.80;;;;;;;31.60;nan;101194.38;5041781;28;20798;-74
2022/06/18 11:42:12;;;;;;;6.10;4.00;;;;;;;30.55;nan;101199.81;5039918;28;20701;-75
2022/06/18 11:45:06;;;;;;;4.90;4.10;;;;;;;30.50;nan;101187.59;5040639;28;20439;-74
2022/06/18 11:47:49;;;;;;;8.13;3.60;;;;;;;31.00;nan;101180.59;5074179;28;20471;-74
2022/06/18 11:50:30;;;;;;;6.00;3.87;;;;;;;30.93;nan;101179.25;5040829;28;20495;-74
2022/06/18 11:53:09;;;;;;;5.53;3.80;;;;;;;30.23;nan;101175.03;5073761;28;20803;-75
2022/06/18 11:55:38;;;;;;;4.67;3.40;;;;;;;30.70;nan;101172.78;5041159;28;20412;-74
2022/06/18 11:58:17;;;;;;;7.23;3.80;;;;;;;30.01;nan;101162.13;5040751;28;20425;-76
2022/06/18 12:01:05;;;;;;;6.17;3.90;;;;;;;29.89;nan;101164.66;5041293;28;20828;-77
2022/06/18 12:03:42;;;;;;;6.43;3.50;;;;;;;30.14;nan;101167.56;5039735;28;20449;-76
2022/06/18 12:06:12;;;;;;;3.90;3.47;;;;;;;30.37;nan;101164.19;5040506;28;20607;-77
2022/06/18 12:08:38;;;;;;;9.30;3.40;;;;;;;30.04;nan;101170.00;5041232;28;20417;-76